Time;durP1;ratioP1;P1;durP2;ratioP2;P2;SDS_P1;SDS_P2;PMS_P1;PMS_P2;Temp;Humidity;BMP_temperature;BMP_pressure;BME280_temperature;BME280_humidity;BME280_pressure;Samples;Min_cycle;Max_cycle;Signal;HPM_P1;HPM_P2
2021/08/01 00:02:06;;;;;;;7.63;3.83;;;18.10;4.40;;;;;;5119036;27;20054;-72
2021/08/01 00:04:58;;;;;;;11.50;4.05;;;18.00;5.10;;;;;;5120373;27;20043;-73
2021/08/01 00:07:46;;;;;;;24.67;4.63;;;17.90;7.90;;;;;;5122894;27;20039;-72
2021/08/01 00:10:35;;;;;;;6.25;4.10;;;17.80;7.60;;;;;;5107259;27;20629;-72
2021/08/01 00:13:23;;;;;;;4.88;3.90;;;17.80;9.90;;;;;;5125136;27;20043;-72
2021/08/01 00:16:14;;;;;;;7.35;3.90;;;17.80;9.40;;;;;;5114635;27;20047;-72
2021/08/01 00:19:03;;;;;;;7.47;3.83;;;17.80;12.20;;;;;;5117968;27;20413;-72
2021/08/01 00:21:52;;;;;;;5.95;4.20;;;17.70;12.20;;;;;;5125680;27;20061;-72
2021/08/01 00:24:40;;;;;;;8.30;4.05;;;17.70;11.10;;;;;;5120763;27;20054;-72
2021/08/01 00:27:33;;;;;;;6.03;3.80;;;17.70;13.10;;;;;;5126526;27;20054;-73
2021/08/01 00:30:21;;;;;;;7.97;4.13;;;17.60;12.00;;;;;;5120976;27;20049;-73
2021/08/01 00:33:11;;;;;;;7.57;3.92;;;17.60;13.00;;;;;;5120404;27;20061;-72
2021/08/01 00:36:00;;;;;;;8.10;3.95;;;17.70;14.70;;;;;;5120488;27;20043;-73
2021/08/01 00:38:48;;;;;;;6.38;4.03;;;17.60;13.60;;;;;;5124245;27;20410;-72
2021/08/01 00:41:36;;;;;;;7.13;4.10;;;17.40;14.10;;;;;;5122665;27;20043;-72
2021/08/01 00:44:25;;;;;;;5.57;4.05;;;17.40;14.80;;;;;;5123292;27;20490;-70
2021/08/01 00:47:13;;;;;;;5.47;3.95;;;17.40;16.20;;;;;;5116929;27;20135;-72
2021/08/01 00:50:06;;;;;;;7.30;3.75;;;17.40;16.20;;;;;;5112446;27;20043;-72
2021/08/01 00:52:56;;;;;;;7.53;3.80;;;17.40;17.40;;;;;;5125703;27;20039;-71
2021/08/01 00:55:45;;;;;;;4.38;3.28;;;17.40;21.20;;;;;;5102994;27;20055;-72
2021/08/01 00:58:34;;;;;;;5.70;3.92;;;17.30;20.00;;;;;;5122291;27;20539;-72
2021/08/01 01:01:26;;;;;;;6.30;3.95;;;17.30;22.20;;;;;;5117772;27;20054;-72
2021/08/01 01:04:22;;;;;;;4.65;3.72;;;17.30;20.00;;;;;;5126487;27;20513;-72
2021/08/01 01:07:18;;;;;;;8.38;4.00;;;17.30;19.90;;;;;;5120723;27;20870;-72
2021/08/01 01:10:11;;;;;;;5.53;3.80;;;17.20;19.50;;;;;;5102257;27;20050;-72
2021/08/01 01:13:11;;;;;;;8.88;4.53;;;17.40;22.30;;;;;;5117574;27;20482;-73
2021/08/01 01:16:01;;;;;;;6.35;4.10;;;17.30;20.00;;;;;;5111448;27;20115;-73
2021/08/01 01:18:51;;;;;;;6.05;3.78;;;17.20;24.70;;;;;;5130443;27;20051;-73
2021/08/01 01:21:49;;;;;;;6.57;4.43;;;17.10;22.40;;;;;;5107703;27;20516;-73
2021/08/01 01:24:41;;;;;;;4.10;3.70;;;17.20;24.90;;;;;;5110090;27;20107;-73
2021/08/01 01:27:51;;;;;;;7.05;4.43;;;17.10;22.40;;;;;;5121517;27;20122;-73
2021/08/01 01:30:46;;;;;;;7.78;4.03;;;17.10;24.30;;;;;;5114694;27;20059;-73
2021/08/01 01:33:40;;;;;;;6.97;4.05;;;17.00;25.40;;;;;;5112295;27;20494;-73
2021/08/01 01:36:31;;;;;;;5.90;4.40;;;17.00;28.10;;;;;;5110949;27;20138;-73
2021/08/01 01:39:21;;;;;;;6.88;4.30;;;17.10;28.30;;;;;;5119528;27;20059;-73
2021/08/01 01:42:22;;;;;;;6.85;4.07;;;16.90;27.60;;;;;;5105327;27;20532;-73
2021/08/01 01:45:18;;;;;;;9.55;4.60;;;16.90;28.00;;;;;;5090462;27;20047;-73
2021/08/01 01:48:08;;;;;;;5.80;4.07;;;16.90;30.10;;;;;;5125142;27;20046;-73
2021/08/01 01:50:57;;;;;;;10.13;4.53;;;16.80;32.40;;;;;;5112373;27;20122;-74
2021/08/01 01:53:47;;;;;;;8.43;4.68;;;16.70;32.90;;;;;;5104592;27;20506;-73
2021/08/01 01:56:38;;;;;;;7.07;4.30;;;16.70;34.40;;;;;;5106271;27;20047;-72
2021/08/01 01:59:28;;;;;;;9.40;5.00;;;16.70;33.80;;;;;;5107655;27;20431;-73
2021/08/01 02:02:17;;;;;;;7.82;4.63;;;16.70;34.40;;;;;;5115315;27;20046;-72
2021/08/01 02:05:11;;;;;;;8.68;4.80;;;16.50;36.10;;;;;;5108497;27;20040;-73
2021/08/01 02:08:18;;;;;;;7.00;5.40;;;16.50;39.50;;;;;;5120733;27;20047;-73
2021/08/01 02:11:37;;;;;;;11.85;6.00;;;16.50;40.00;;;;;;5124434;27;20097;-73
2021/08/01 02:14:45;;;;;;;14.63;9.50;;;16.60;37.90;;;;;;5096451;27;20036;-73
2021/08/01 02:17:46;;;;;;;11.88;5.53;;;16.50;40.20;;;;;;5111491;27;20062;-73
2021/08/01 02:20:41;;;;;;;8.57;5.50;;;16.50;40.10;;;;;;5109366;27;20558;-73
2021/08/01 02:23:50;;;;;;;9.52;5.32;;;16.50;42.20;;;;;;5112150;27;20042;-74
2021/08/01 02:26:46;;;;;;;9.95;5.63;;;16.40;41.60;;;;;;5096592;27;20051;-73
2021/08/01 02:29:35;;;;;;;8.27;5.90;;;16.30;44.00;;;;;;5108826;27;20072;-73
2021/08/01 02:32:24;;;;;;;8.98;5.65;;;16.30;45.40;;;;;;5124100;27;20056;-74
2021/08/01 02:35:13;;;;;;;6.15;5.28;;;16.30;43.60;;;;;;5128485;27;20414;-74
2021/08/01 02:38:03;;;;;;;8.57;6.00;;;16.30;42.90;;;;;;5107814;27;20043;-75
2021/08/01 02:40:54;;;;;;;8.18;6.18;;;16.40;45.80;;;;;;5109073;27;20485;-75
2021/08/01 02:43:46;;;;;;;9.27;5.50;;;16.20;46.50;;;;;;5119295;27;20043;-75
2021/08/01 02:46:35;;;;;;;9.68;5.40;;;16.20;46.80;;;;;;5122717;27;20047;-74
2021/08/01 02:49:28;;;;;;;7.07;5.35;;;16.20;45.80;;;;;;5115360;27;20051;-74
2021/08/01 02:52:24;;;;;;;6.57;5.35;;;16.20;46.80;;;;;;5110155;27;20364;-75
2021/08/01 02:55:16;;;;;;;8.82;5.50;;;16.20;46.40;;;;;;5105769;27;20051;-75
2021/08/01 02:58:07;;;;;;;9.25;5.80;;;16.20;46.90;;;;;;5119721;27;20422;-75
2021/08/01 03:01:07;;;;;;;9.00;6.32;;;16.20;47.50;;;;;;5123668;27;20520;-76
2021/08/01 03:03:57;;;;;;;9.75;5.70;;;16.20;48.30;;;;;;5121454;27;20035;-75
2021/08/01 03:06:46;;;;;;;9.90;5.50;;;16.10;48.40;;;;;;5120899;27;20172;-76
2021/08/01 03:09:34;;;;;;;9.00;6.15;;;16.10;48.40;;;;;;5116696;27;20445;-77
2021/08/01 03:12:23;;;;;;;8.60;6.30;;;16.00;47.40;;;;;;5121235;27;20039;-77
2021/08/01 03:15:19;;;;;;;9.45;6.15;;;16.10;49.80;;;;;;5104737;27;20042;-77
2021/08/01 03:18:09;;;;;;;9.95;6.38;;;16.10;50.80;;;;;;5091702;27;20051;-77
2021/08/01 03:20:59;;;;;;;8.40;5.95;;;16.00;48.70;;;;;;5124100;27;20078;-77
2021/08/01 03:23:48;;;;;;;10.23;6.38;;;16.00;50.10;;;;;;5120143;27;20039;-78
2021/08/01 03:26:44;;;;;;;7.88;6.18;;;16.00;51.20;;;;;;5102287;27;20077;-76
2021/08/01 03:29:34;;;;;;;10.05;6.32;;;16.00;52.00;;;;;;5122647;27;20130;-77
2021/08/01 03:32:26;;;;;;;8.23;6.70;;;16.00;51.70;;;;;;5117338;27;20051;-77
2021/08/01 03:35:20;;;;;;;13.98;6.50;;;16.00;53.40;;;;;;5124643;27;20039;-77
2021/08/01 03:38:29;;;;;;;11.13;6.60;;;16.00;54.00;;;;;;5119438;27;20050;-78
2021/08/01 03:41:36;;;;;;;8.80;6.20;;;15.90;54.70;;;;;;5117345;27;20494;-78
2021/08/01 03:44:26;;;;;;;8.43;6.68;;;15.90;54.70;;;;;;5104324;27;20500;-78
2021/08/01 03:47:15;;;;;;;10.32;6.60;;;15.90;54.80;;;;;;5108505;27;20051;-77
2021/08/01 03:50:04;;;;;;;10.05;6.63;;;15.90;54.70;;;;;;5129450;27;20043;-77
2021/08/01 03:52:54;;;;;;;13.45;6.60;;;15.90;56.20;;;;;;5122974;27;20111;-79
2021/08/01 03:55:42;;;;;;;12.07;6.10;;;15.90;55.10;;;;;;5118921;27;20433;-79
2021/08/01 03:58:30;;;;;;;9.35;6.40;;;15.80;54.60;;;;;;5118673;27;20047;-79
2021/08/01 04:01:19;;;;;;;12.55;7.20;;;15.90;54.50;;;;;;5117746;27;20050;-79
2021/08/01 04:04:07;;;;;;;11.40;7.05;;;15.80;55.60;;;;;;5104884;27;20050;-79
2021/08/01 04:06:56;;;;;;;8.80;6.70;;;15.80;56.50;;;;;;5122082;27;20051;-80
2021/08/01 04:09:46;;;;;;;12.93;6.60;;;15.70;55.30;;;;;;5118048;27;20569;-79
2021/08/01 04:12:34;;;;;;;10.57;6.88;;;15.80;56.70;;;;;;5111837;27;20109;-79
2021/08/01 04:15:23;;;;;;;7.95;7.10;;;15.80;56.00;;;;;;5095270;27;20039;-79
2021/08/01 04:18:11;;;;;;;10.50;6.93;;;15.90;57.10;;;;;;5118475;27;20490;-80
2021/08/01 04:21:00;;;;;;;9.95;6.93;;;15.80;56.60;;;;;;5123075;27;20627;-80
2021/08/01 04:23:48;;;;;;;12.00;7.15;;;15.90;56.40;;;;;;5120437;27;20134;-79
2021/08/01 04:26:39;;;;;;;10.48;7.15;;;15.80;55.10;;;;;;5122300;27;20915;-80
2021/08/01 04:29:27;;;;;;;9.02;6.75;;;15.80;55.60;;;;;;5119217;27;20392;-80
2021/08/01 04:32:15;;;;;;;8.20;6.30;;;15.70;55.70;;;;;;5124897;27;20053;-80
2021/08/01 04:35:04;;;;;;;9.30;6.55;;;15.80;57.50;;;;;;5119746;27;20059;-80
2021/08/01 04:37:53;;;;;;;9.05;6.38;;;15.80;57.50;;;;;;5088986;27;20042;-80
2021/08/01 04:40:41;;;;;;;11.70;7.05;;;15.80;58.60;;;;;;5122781;27;20047;-80
2021/08/01 04:43:31;;;;;;;9.98;7.13;;;15.80;58.90;;;;;;5105061;27;20051;-80
2021/08/01 04:46:19;;;;;;;9.55;7.80;;;15.80;59.80;;;;;;5117379;27;20042;-79
2021/08/01 04:49:08;;;;;;;10.13;7.45;;;15.80;59.60;;;;;;5125688;27;20096;-79
2021/08/01 04:51:56;;;;;;;10.45;6.93;;;15.80;60.30;;;;;;5125197;27;20047;-80
2021/08/01 04:54:44;;;;;;;10.02;7.22;;;15.80;60.10;;;;;;5126404;27;20047;-79
2021/08/01 04:57:36;;;;;;;12.57;7.85;;;15.90;60.70;;;;;;5122376;27;20040;-79
2021/08/01 05:00:28;;;;;;;8.35;6.97;;;15.90;60.50;;;;;;5122748;27;20054;-79
2021/08/01 05:03:16;;;;;;;7.35;6.55;;;15.90;59.90;;;;;;5130751;27;20039;-79
2021/08/01 05:06:05;;;;;;;9.07;6.43;;;15.90;59.60;;;;;;5130323;27;20047;-81
2021/08/01 05:08:53;;;;;;;9.70;6.70;;;16.00;60.70;;;;;;5111655;27;20043;-80
2021/08/01 05:11:42;;;;;;;11.23;6.72;;;15.90;59.80;;;;;;5120126;27;20537;-80
2021/08/01 05:14:30;;;;;;;8.02;6.55;;;16.00;60.60;;;;;;5106241;27;20135;-80
2021/08/01 05:17:21;;;;;;;8.90;6.95;;;15.80;59.50;;;;;;5125271;27;20054;-80
2021/08/01 05:20:11;;;;;;;13.60;6.55;;;15.80;61.30;;;;;;5098498;27;20077;-81
2021/08/01 05:22:59;;;;;;;7.55;6.07;;;15.70;60.70;;;;;;5107807;27;20047;-81
2021/08/01 05:25:47;;;;;;;9.18;6.68;;;15.80;61.40;;;;;;5122135;27;20213;-81
2021/08/01 05:28:36;;;;;;;10.05;6.78;;;15.80;61.20;;;;;;5111935;27;20125;-82
2021/08/01 05:31:24;;;;;;;8.93;6.47;;;15.80;60.40;;;;;;5125748;27;20047;-82
2021/08/01 05:34:14;;;;;;;10.15;7.25;;;15.90;60.40;;;;;;5125438;27;20414;-82
2021/08/01 05:37:03;;;;;;;7.80;6.00;;;15.90;59.80;;;;;;5107749;27;20050;-82
2021/08/01 05:39:51;;;;;;;8.57;6.00;;;15.90;59.80;;;;;;5107637;27;20051;-82
2021/08/01 05:42:40;;;;;;;11.45;6.55;;;15.90;59.00;;;;;;5100938;27;20053;-82
2021/08/01 05:45:29;;;;;;;9.70;6.78;;;15.90;59.10;;;;;;5127228;27;20123;-82
2021/08/01 05:48:17;;;;;;;9.55;5.93;;;16.00;60.00;;;;;;5125582;27;20051;-81
2021/08/01 05:51:07;;;;;;;9.30;6.15;;;16.00;58.80;;;;;;5119086;27;20055;-81
2021/08/01 05:53:56;;;;;;;8.27;6.00;;;16.00;57.00;;;;;;5110940;27;20042;-83
2021/08/01 05:56:44;;;;;;;9.00;5.90;;;15.90;57.10;;;;;;5121689;27;20116;-81
2021/08/01 05:59:33;;;;;;;8.35;5.78;;;16.10;58.20;;;;;;5111416;27;20066;-81
2021/08/01 06:02:21;;;;;;;8.10;6.25;;;16.10;57.00;;;;;;5100602;27;20047;-82
2021/08/01 06:05:11;;;;;;;8.30;6.10;;;16.10;56.10;;;;;;5107538;27;20044;-83
2021/08/01 06:08:00;;;;;;;7.82;6.25;;;16.20;56.70;;;;;;5107909;27;20075;-83
2021/08/01 06:10:50;;;;;;;9.32;5.68;;;16.10;54.90;;;;;;5111905;27;20126;-82
2021/08/01 06:13:39;;;;;;;8.57;5.70;;;16.20;55.00;;;;;;5106439;27;20051;-82
2021/08/01 06:16:27;;;;;;;7.57;5.30;;;16.40;56.70;;;;;;5104122;27;20139;-81
2021/08/01 06:19:27;;;;;;;10.15;5.10;;;16.30;52.50;;;;;;5094910;27;20040;-82
2021/08/01 06:22:16;;;;;;;9.18;5.35;;;16.50;54.40;;;;;;5125944;27;20091;-82
2021/08/01 06:25:06;;;;;;;9.57;5.25;;;16.40;49.00;;;;;;5108858;27;20073;-82
2021/08/01 06:27:55;;;;;;;7.32;4.97;;;16.50;51.10;;;;;;5122056;27;20043;-82
2021/08/01 06:30:43;;;;;;;7.20;5.45;;;16.50;51.60;;;;;;5119835;27;20423;-82
2021/08/01 06:33:33;;;;;;;7.32;5.15;;;16.50;51.20;;;;;;5107569;27;20523;-82
2021/08/01 06:36:21;;;;;;;9.88;5.22;;;16.60;53.60;;;;;;5106947;27;20068;-82
2021/08/01 06:39:09;;;;;;;6.45;4.70;;;16.50;52.20;;;;;;5122891;27;20055;-81
2021/08/01 06:41:59;;;;;;;10.82;6.07;;;16.40;53.00;;;;;;5122626;27;20517;-81
2021/08/01 06:44:48;;;;;;;7.10;5.53;;;16.50;52.30;;;;;;5109561;27;20046;-81
2021/08/01 06:47:36;;;;;;;10.85;5.35;;;16.50;53.70;;;;;;5119544;27;20415;-80
2021/08/01 06:50:25;;;;;;;9.68;5.55;;;16.40;51.10;;;;;;5127586;27;20054;-81
2021/08/01 06:53:13;;;;;;;6.43;4.30;;;16.30;51.60;;;;;;5112671;27;20085;-81
2021/08/01 06:56:01;;;;;;;7.65;5.00;;;16.20;48.10;;;;;;5116350;27;20100;-80
2021/08/01 06:58:52;;;;;;;7.82;5.13;;;16.10;46.40;;;;;;5123775;27;20141;-81
2021/08/01 07:01:41;;;;;;;7.85;5.43;;;16.10;47.00;;;;;;5121208;27;20127;-81
2021/08/01 07:04:29;;;;;;;8.77;5.57;;;16.30;52.40;;;;;;5127528;27;20054;-80
2021/08/01 07:07:17;;;;;;;8.07;5.00;;;16.20;48.00;;;;;;5122430;27;20127;-80
2021/08/01 07:10:06;;;;;;;8.07;5.45;;;16.30;49.30;;;;;;5121729;27;20043;-81
2021/08/01 07:12:55;;;;;;;14.05;5.32;;;16.50;51.30;;;;;;5122521;27;20047;-81
2021/08/01 07:15:44;;;;;;;11.43;5.43;;;16.30;46.50;;;;;;5107265;27;20180;-80
2021/08/01 07:18:33;;;;;;;7.80;5.38;;;16.30;49.60;;;;;;5107239;27;20406;-80
2021/08/01 07:21:22;;;;;;;7.47;5.10;;;16.40;50.00;;;;;;5121524;27;20047;-80
2021/08/01 07:24:10;;;;;;;6.60;4.72;;;16.20;50.90;;;;;;5104280;27;20043;-80
2021/08/01 07:26:59;;;;;;;7.25;4.65;;;16.20;50.80;;;;;;5121082;27;20488;-80
2021/08/01 07:29:47;;;;;;;6.80;5.32;;;16.50;53.80;;;;;;5129234;27;20111;-80
2021/08/01 07:32:38;;;;;;;9.82;5.18;;;16.50;51.60;;;;;;5120669;27;20050;-80
2021/08/01 07:35:27;;;;;;;10.00;5.38;;;16.70;52.50;;;;;;5118028;27;20040;-80
2021/08/01 07:38:15;;;;;;;9.88;5.43;;;16.70;50.50;;;;;;5118853;27;20046;-80
2021/08/01 07:41:03;;;;;;;7.68;4.93;;;16.70;46.50;;;;;;5113417;27;20070;-80
2021/08/01 07:43:52;;;;;;;7.72;5.10;;;16.80;49.90;;;;;;5117237;27;20046;-79
2021/08/01 07:46:40;;;;;;;9.45;5.10;;;17.00;49.10;;;;;;5104102;27;20062;-79
2021/08/01 07:49:30;;;;;;;6.63;4.47;;;17.00;47.60;;;;;;5124924;27;20053;-80
2021/08/01 07:52:19;;;;;;;6.82;4.68;;;17.00;50.00;;;;;;5126379;27;20055;-79
2021/08/01 07:55:09;;;;;;;11.07;4.85;;;17.00;47.50;;;;;;5122458;27;20043;-81
2021/08/01 07:57:57;;;;;;;6.95;4.30;;;16.90;43.40;;;;;;5121330;27;20069;-80
2021/08/01 08:00:46;;;;;;;7.60;4.78;;;17.10;46.70;;;;;;5116870;27;20126;-79
2021/08/01 08:03:34;;;;;;;8.00;5.03;;;17.10;44.90;;;;;;5120336;27;20047;-79
2021/08/01 08:06:24;;;;;;;7.50;4.47;;;17.20;45.80;;;;;;5121667;27;20589;-79
2021/08/01 08:09:12;;;;;;;9.77;4.93;;;17.10;43.40;;;;;;5118482;27;20047;-79
2021/08/01 08:12:01;;;;;;;6.18;4.82;;;17.20;44.60;;;;;;5117732;27;20051;-79
2021/08/01 08:14:51;;;;;;;7.05;4.45;;;17.30;43.50;;;;;;5107744;27;20146;-81
2021/08/01 08:17:39;;;;;;;9.27;5.03;;;17.20;42.20;;;;;;5107896;27;20027;-79
2021/08/01 08:20:28;;;;;;;6.53;4.45;;;17.30;42.40;;;;;;5123948;27;20046;-79
2021/08/01 08:23:18;;;;;;;9.90;4.50;;;17.40;44.70;;;;;;5125485;27;20047;-80
2021/08/01 08:26:07;;;;;;;10.40;4.78;;;17.50;39.20;;;;;;5119822;27;20051;-80
2021/08/01 08:28:55;;;;;;;8.15;4.10;;;17.60;35.20;;;;;;5126763;27;20051;-79
2021/08/01 08:31:49;;;;;;;6.90;4.50;;;17.80;37.20;;;;;;5127854;27;20042;-81
2021/08/01 08:34:37;;;;;;;8.13;4.47;;;17.90;36.60;;;;;;5126650;27;20041;-80
2021/08/01 08:37:26;;;;;;;11.90;4.55;;;17.90;35.00;;;;;;5116131;27;20058;-80
2021/08/01 08:40:16;;;;;;;8.27;3.78;;;18.10;32.00;;;;;;5126284;27;20103;-80
2021/08/01 08:43:05;;;;;;;5.93;3.67;;;17.60;24.50;;;;;;5124428;27;20490;-79
2021/08/01 08:45:56;;;;;;;5.43;3.25;;;17.60;30.40;;;;;;5112159;27;20167;-80
2021/08/01 08:48:46;;;;;;;5.30;3.53;;;18.00;30.10;;;;;;5124267;27;20046;-78
2021/08/01 08:51:36;;;;;;;8.05;4.00;;;18.20;28.20;;;;;;5124171;27;20073;-78
2021/08/01 08:54:32;;;;;;;7.95;3.80;;;18.30;22.90;;;;;;5129188;27;20535;-78
2021/08/01 08:57:25;;;;;;;6.05;3.78;;;18.30;26.30;;;;;;5126475;27;20123;-80
2021/08/01 09:00:15;;;;;;;7.97;4.03;;;18.20;28.10;;;;;;5121031;27;20051;-79
2021/08/01 09:03:04;;;;;;;6.05;3.67;;;18.20;26.90;;;;;;5120990;27;20447;-79
2021/08/01 09:05:56;;;;;;;6.18;3.22;;;18.50;22.20;;;;;;5122654;27;20039;-78
2021/08/01 09:08:45;;;;;;;7.32;3.85;;;18.30;24.80;;;;;;5121970;27;20130;-79
2021/08/01 09:11:33;;;;;;;5.15;3.33;;;18.60;26.20;;;;;;5131088;27;20047;-78
2021/08/01 09:14:23;;;;;;;6.53;3.50;;;18.60;24.40;;;;;;5109929;27;20459;-79
2021/08/01 09:17:11;;;;;;;5.20;3.50;;;18.60;20.90;;;;;;5106017;27;20410;-79
2021/08/01 09:20:13;;;;;;;5.47;3.35;;;18.70;21.00;;;;;;5117602;27;20059;-79
2021/08/01 09:23:19;;;;;;;6.35;3.80;;;18.50;23.40;;;;;;5125263;27;20050;-78
2021/08/01 09:26:08;;;;;;;7.43;3.75;;;18.60;22.80;;;;;;5127607;27;20068;-78
2021/08/01 09:29:03;;;;;;;5.93;3.70;;;18.50;20.90;;;;;;5125011;27;20039;-79
2021/08/01 09:32:00;;;;;;;8.85;3.40;;;18.40;22.30;;;;;;5106933;27;20435;-79
2021/08/01 09:34:50;;;;;;;6.82;4.07;;;18.80;21.10;;;;;;5109995;27;20135;-78
2021/08/01 09:37:38;;;;;;;7.35;3.83;;;18.80;19.80;;;;;;5123865;27;20052;-78
2021/08/01 09:40:28;;;;;;;5.40;3.58;;;18.70;18.70;;;;;;5127730;27;20047;-78
2021/08/01 09:43:17;;;;;;;6.40;3.90;;;18.50;20.90;;;;;;5112914;27;20051;-78
2021/08/01 09:46:05;;;;;;;9.50;4.78;;;18.50;19.20;;;;;;5120010;27;20694;-78
2021/08/01 09:49:11;;;;;;;5.03;3.67;;;18.30;18.30;;;;;;5122464;27;20497;-78
2021/08/01 09:52:01;;;;;;;7.05;4.05;;;18.40;21.40;;;;;;5133953;27;20051;-79
2021/08/01 09:54:50;;;;;;;8.20;4.00;;;18.30;19.90;;;;;;5127405;27;20168;-78
2021/08/01 09:57:48;;;;;;;8.77;4.22;;;18.80;21.20;;;;;;5107774;27;20047;-77
2021/08/01 10:01:00;;;;;;;4.10;3.40;;;19.00;16.60;;;;;;5108347;27;20043;-79
2021/08/01 10:03:50;;;;;;;6.15;4.15;;;19.00;19.10;;;;;;5122412;27;20061;-78
2021/08/01 10:06:39;;;;;;;5.28;4.07;;;18.90;14.40;;;;;;5131273;27;20545;-78
2021/08/01 10:09:29;;;;;;;4.18;3.58;;;18.70;16.20;;;;;;5106488;27;20130;-77
2021/08/01 10:12:18;;;;;;;5.13;4.05;;;18.50;17.00;;;;;;5123889;27;20078;-77
2021/08/01 10:15:07;;;;;;;9.63;4.03;;;18.40;19.20;;;;;;5120870;27;20185;-78
2021/08/01 10:17:55;;;;;;;11.85;4.22;;;18.80;17.50;;;;;;5123605;27;20101;-78
2021/08/01 10:20:44;;;;;;;8.90;3.60;;;18.90;17.20;;;;;;5126099;27;20571;-77
2021/08/01 10:23:37;;;;;;;8.43;4.00;;;19.00;15.50;;;;;;5122855;27;20043;-77
2021/08/01 10:26:35;;;;;;;6.07;3.97;;;18.60;17.00;;;;;;5120208;27;20043;-77
2021/08/01 10:29:30;;;;;;;7.40;3.83;;;18.80;20.40;;;;;;5124303;27;20506;-77
2021/08/01 10:32:21;;;;;;;5.80;3.88;;;19.10;15.40;;;;;;5121310;27;20116;-77
2021/08/01 10:35:14;;;;;;;6.25;3.97;;;19.30;12.20;;;;;;5127727;27;20045;-77
2021/08/01 10:38:04;;;;;;;6.30;3.92;;;19.30;14.10;;;;;;5121235;27;20039;-78
2021/08/01 10:40:59;;;;;;;5.00;3.53;;;19.50;12.20;;;;;;5125783;27;20054;-77
2021/08/01 10:43:49;;;;;;;7.13;3.90;;;19.30;12.30;;;;;;5120977;27;20075;-77
2021/08/01 10:46:40;;;;;;;7.43;3.88;;;19.30;12.30;;;;;;5111240;27;20051;-77
2021/08/01 10:49:28;;;;;;;11.30;4.25;;;19.10;13.40;;;;;;5125716;27;20168;-78
2021/08/01 10:52:18;;;;;;;5.20;4.05;;;19.10;14.00;;;;;;5121813;27;20126;-77
2021/08/01 10:55:08;;;;;;;6.72;4.07;;;19.00;13.10;;;;;;5117151;27;20058;-78
2021/08/01 10:58:12;;;;;;;6.25;4.03;;;18.80;14.80;;;;;;5117575;27;20083;-76
2021/08/01 11:01:01;;;;;;;6.70;4.32;;;19.20;14.80;;;;;;5120944;27;20092;-77
2021/08/01 11:04:26;;;;;;;7.30;4.07;;;19.40;11.50;;;;;;5125800;27;20039;-76
2021/08/01 11:07:53;;;;;;;4.80;3.83;;;19.20;11.80;;;;;;5119491;27;20551;-77
2021/08/01 11:10:43;;;;;;;7.75;3.88;;;19.50;12.60;;;;;;5120633;27;20183;-77
2021/08/01 11:13:44;;;;;;;5.85;4.25;;;19.80;10.50;;;;;;5125627;27;21586;-76
2021/08/01 11:16:49;;;;;;;6.15;3.53;;;19.70;8.10;;;;;;5122664;27;20047;-77
2021/08/01 11:19:38;;;;;;;6.50;3.47;;;19.90;7.10;;;;;;5124733;27;20538;-77
2021/08/01 11:22:51;;;;;;;8.88;3.92;;;20.00;7.20;;;;;;5128151;27;20076;-76
2021/08/01 11:25:44;;;;;;;9.32;3.88;;;20.20;6.00;;;;;;5112892;27;20819;-77
2021/08/01 11:28:36;;;;;;;5.95;3.65;;;20.10;4.80;;;;;;5119597;27;20059;-77
2021/08/01 11:31:25;;;;;;;5.63;3.38;;;20.20;5.30;;;;;;5104062;27;20055;-76
2021/08/01 11:34:19;;;;;;;7.40;4.10;;;20.60;5.10;;;;;;5123118;27;21034;-76
2021/08/01 11:37:18;;;;;;;4.38;3.72;;;20.30;4.40;;;;;;5121899;27;20104;-76
2021/08/01 11:40:08;;;;;;;7.25;3.47;;;20.60;3.70;;;;;;5124814;27;20043;-77
2021/08/01 11:43:06;;;;;;;7.10;3.72;;;20.50;2.90;;;;;;5124793;27;20066;-77
2021/08/01 11:46:04;;;;;;;6.60;3.78;;;20.60;3.50;;;;;;5099266;27;20054;-75
2021/08/01 11:48:58;;;;;;;5.82;4.07;;;20.40;2.90;;;;;;5119176;27;20039;-78
2021/08/01 11:51:48;;;;;;;6.45;4.10;;;20.20;3.50;;;;;;5113616;27;20050;-76
2021/08/01 11:54:37;;;;;;;6.50;3.70;;;20.40;3.60;;;;;;5127119;27;20035;-76
2021/08/01 11:57:29;;;;;;;5.70;4.00;;;20.50;3.40;;;;;;5119876;27;20046;-77
2021/08/01 12:00:24;;;;;;;5.72;3.35;;;20.70;1.00;;;;;;5120910;27;20049;-76
2021/08/01 12:03:15;;;;;;;3.58;3.22;;;20.70;1.00;;;;;;5121710;27;20159;-76
2021/08/01 12:06:03;;;;;;;3.65;3.30;;;21.00;1.00;;;;;;5120996;27;20043;-75
2021/08/01 12:08:51;;;;;;;6.82;3.10;;;21.10;1.00;;;;;;5094568;27;21151;-76
2021/08/01 12:11:40;;;;;;;4.22;2.90;;;21.50;1.00;;;;;;5121091;27;20542;-76
2021/08/01 12:14:42;;;;;;;5.53;3.03;;;21.20;1.00;;;;;;5121601;27;20043;-76
2021/08/01 12:17:35;;;;;;;3.75;2.65;;;21.30;1.00;;;;;;5120417;27;20480;-75
2021/08/01 12:20:33;;;;;;;4.78;2.60;;;21.40;1.00;;;;;;5127449;27;20039;-77
2021/08/01 12:23:36;;;;;;;4.40;2.70;;;21.00;1.00;;;;;;5123686;27;20039;-76
2021/08/01 12:26:39;;;;;;;4.18;3.00;;;20.50;1.00;;;;;;5104955;27;20441;-76
2021/08/01 12:29:32;;;;;;;4.43;3.05;;;20.80;1.00;;;;;;5118024;27;20469;-76
2021/08/01 12:32:29;;;;;;;3.58;2.60;;;21.20;1.00;;;;;;5123206;27;20038;-76
2021/08/01 12:35:19;;;;;;;4.70;2.95;;;21.40;1.00;;;;;;5119722;27;20062;-75
2021/08/01 12:38:10;;;;;;;4.85;3.00;;;21.60;1.00;;;;;;5120786;27;20047;-76
2021/08/01 12:41:12;;;;;;;3.80;2.40;;;21.60;1.00;;;;;;5119885;27;20520;-76
2021/08/01 12:44:12;;;;;;;5.22;2.35;;;21.60;1.00;;;;;;5116382;27;20046;-76
2021/08/01 12:47:07;;;;;;;4.78;2.40;;;21.50;1.00;;;;;;5114102;27;20040;-75
2021/08/01 12:49:56;;;;;;;6.25;3.00;;;21.60;1.00;;;;;;5121731;27;20437;-76
2021/08/01 12:52:45;;;;;;;5.05;2.38;;;22.00;1.00;;;;;;5122538;27;20123;-75
2021/08/01 12:55:35;;;;;;;2.53;2.08;;;21.10;1.00;;;;;;5124507;27;20429;-75
2021/08/01 12:58:30;;;;;;;5.28;2.53;;;21.00;1.00;;;;;;5114562;27;20047;-75
2021/08/01 13:01:19;;;;;;;5.05;2.40;;;22.00;1.00;;;;;;5108866;27;20047;-77
2021/08/01 13:04:08;;;;;;;3.17;2.15;;;22.80;1.00;;;;;;5120916;27;20133;-76
2021/08/01 13:07:03;;;;;;;3.50;1.85;;;22.90;1.00;;;;;;5119253;27;20121;-75
2021/08/01 13:09:59;;;;;;;2.03;1.80;;;23.00;1.00;;;;;;5117946;27;20062;-75
2021/08/01 13:13:10;;;;;;;3.15;2.33;;;23.30;1.00;;;;;;5121273;27;20502;-76
2021/08/01 13:16:00;;;;;;;2.78;1.83;;;22.70;1.00;;;;;;5104211;27;20431;-76
2021/08/01 13:18:49;;;;;;;2.28;1.98;;;21.90;1.00;;;;;;5120262;27;20132;-75
2021/08/01 13:21:37;;;;;;;2.90;2.00;;;22.10;1.00;;;;;;5118872;27;20774;-76
2021/08/01 13:24:33;;;;;;;3.60;2.33;;;22.40;1.00;;;;;;5111529;27;20517;-76
2021/08/01 13:27:22;;;;;;;3.67;1.92;;;21.90;1.00;;;;;;5090200;27;20054;-75
2021/08/01 13:30:18;;;;;;;2.42;1.80;;;22.00;1.00;;;;;;5104839;27;20083;-75
2021/08/01 13:33:10;;;;;;;2.33;1.92;;;21.80;1.00;;;;;;5113836;27;20426;-74
2021/08/01 13:35:59;;;;;;;3.55;2.10;;;21.80;1.00;;;;;;5133043;27;20528;-75
2021/08/01 13:38:47;;;;;;;4.22;1.90;;;22.10;1.00;;;;;;5122042;27;20177;-75
2021/08/01 13:41:36;;;;;;;3.38;2.00;;;22.20;1.00;;;;;;5119398;27;20050;-76
2021/08/01 13:44:24;;;;;;;3.25;1.88;;;23.00;1.00;;;;;;5124653;27;20505;-75
2021/08/01 13:47:20;;;;;;;3.75;1.92;;;22.50;1.00;;;;;;5123358;27;20043;-74
2021/08/01 13:50:14;;;;;;;3.90;2.17;;;22.50;1.00;;;;;;5122141;27;20397;-75
2021/08/01 13:53:02;;;;;;;4.07;2.00;;;22.00;1.00;;;;;;5107047;27;20124;-76
2021/08/01 13:55:51;;;;;;;3.50;2.00;;;22.30;1.00;;;;;;5122217;27;20050;-75
2021/08/01 13:58:40;;;;;;;1.88;1.30;;;22.70;1.00;;;;;;5124117;27;20039;-75
2021/08/01 14:01:28;;;;;;;1.80;1.40;;;21.80;1.00;;;;;;5108480;27;20119;-74
2021/08/01 14:04:18;;;;;;;2.42;1.52;;;21.70;1.00;;;;;;5118655;27;20047;-75
2021/08/01 14:07:07;;;;;;;1.90;1.45;;;21.90;1.00;;;;;;5117267;27;20062;-74
2021/08/01 14:09:56;;;;;;;3.25;2.30;;;22.40;1.00;;;;;;5117525;27;20050;-75
2021/08/01 14:12:44;;;;;;;2.90;1.42;;;22.20;1.00;;;;;;5109523;27;20054;-74
2021/08/01 14:15:33;;;;;;;2.97;1.88;;;22.40;1.00;;;;;;5128090;27;20047;-75
2021/08/01 14:18:21;;;;;;;2.83;1.73;;;22.40;1.00;;;;;;5101301;27;20062;-75
2021/08/01 14:21:12;;;;;;;3.58;1.83;;;21.80;1.00;;;;;;5118297;27;20036;-74
2021/08/01 14:24:00;;;;;;;2.10;1.60;;;21.50;1.00;;;;;;5130391;27;20460;-75
2021/08/01 14:26:51;;;;;;;3.60;1.55;;;21.70;1.00;;;;;;5118267;27;20062;-74
2021/08/01 14:29:41;;;;;;;2.15;1.20;;;21.70;1.00;;;;;;5127890;27;20167;-74
2021/08/01 14:32:30;;;;;;;1.13;0.98;;;21.90;1.00;;;;;;5121157;27;20043;-74
2021/08/01 14:35:20;;;;;;;1.45;1.00;;;21.80;1.00;;;;;;5119379;27;20126;-74
2021/08/01 14:38:10;;;;;;;1.60;0.95;;;22.20;1.00;;;;;;5123723;27;20097;-74
2021/08/01 14:40:59;;;;;;;2.65;1.00;;;22.20;1.00;;;;;;5093219;27;20063;-74
2021/08/01 14:43:49;;;;;;;1.58;1.25;;;21.80;1.00;;;;;;5113176;27;20054;-75
2021/08/01 14:46:38;;;;;;;1.52;1.10;;;22.20;1.00;;;;;;5120966;27;20168;-74
2021/08/01 14:49:28;;;;;;;1.17;0.90;;;22.10;1.00;;;;;;5108807;27;20039;-75
2021/08/01 14:55:27;;;;;;;2.05;1.05;;;21.00;1.00;;;;;;5107122;27;20055;-74
2021/08/01 14:58:22;;;;;;;1.73;1.30;;;21.10;1.00;;;;;;5101911;27;20575;-73